Time;durP1;ratioP1;P1;durP2;ratioP2;P2;SDS_P1;SDS_P2;PMS_P1;PMS_P2;Temp;Humidity;BMP_temperature;BMP_pressure;BME280_temperature;BME280_humidity;BME280_pressure;Samples;Min_cycle;Max_cycle;Signal;HPM_P1;HPM_P2
2023/01/04 00:00:37;;;;;;;6.33;4.23;;;-0.80;99.90;;;;;;4143978;28;20214;-63
2023/01/04 00:02:38;;;;;;;8.40;5.27;;;-0.80;99.90;;;;;;4130620;28;20221;-64
2023/01/04 00:04:39;;;;;;;8.57;5.50;;;-0.80;99.90;;;;;;4130392;28;20201;-65
2023/01/04 00:06:39;;;;;;;12.20;5.33;;;-0.90;99.90;;;;;;4129506;28;20253;-62
2023/01/04 00:08:40;;;;;;;10.23;6.00;;;-0.90;99.90;;;;;;4146495;28;20220;-62
2023/01/04 00:10:41;;;;;;;10.47;6.43;;;-0.90;99.90;;;;;;4131940;28;20238;-62
2023/01/04 00:12:41;;;;;;;10.63;6.40;;;-0.80;99.90;;;;;;4130126;28;20225;-63
2023/01/04 00:14:42;;;;;;;7.60;4.87;;;-0.90;99.90;;;;;;4131569;28;20206;-62
2023/01/04 00:16:43;;;;;;;10.90;6.23;;;-0.90;99.90;;;;;;4146514;28;20196;-63
2023/01/04 00:18:44;;;;;;;11.43;5.83;;;-0.90;99.90;;;;;;4131310;28;20286;-62
2023/01/04 00:20:45;;;;;;;12.10;6.33;;;-0.80;99.90;;;;;;4129655;28;20218;-63
2023/01/04 00:22:45;;;;;;;16.13;7.73;;;-0.70;99.90;;;;;;4129460;28;20469;-62
2023/01/04 00:24:46;;;;;;;35.23;8.97;;;-0.60;99.90;;;;;;4129529;28;20182;-64
2023/01/04 00:26:46;;;;;;;42.37;10.17;;;-0.60;99.90;;;;;;4114336;28;20690;-62
2023/01/04 00:28:47;;;;;;;15.57;6.10;;;-0.50;99.90;;;;;;4142968;28;20582;-62
2023/01/04 00:30:48;;;;;;;103.50;11.90;;;-0.40;99.90;;;;;;4131267;28;20216;-62
2023/01/04 00:32:49;;;;;;;39.43;8.07;;;-0.40;99.90;;;;;;4146785;28;20428;-62
2023/01/04 00:34:50;;;;;;;24.43;7.67;;;-0.60;99.90;;;;;;4131268;28;20194;-63
2023/01/04 00:36:50;;;;;;;18.50;7.63;;;-0.70;99.90;;;;;;4145665;28;20436;-65
2023/01/04 00:39:08;;;;;;;15.83;6.37;;;-0.70;99.90;;;;;;4131195;28;20225;-63
2023/01/04 00:41:11;;;;;;;9.13;5.27;;;-0.60;99.90;;;;;;4143985;28;20245;-64
2023/01/04 00:43:12;;;;;;;10.17;5.10;;;-0.60;99.90;;;;;;4134311;28;20813;-64
2023/01/04 00:45:12;;;;;;;9.97;4.43;;;-0.60;99.90;;;;;;4131507;28;20437;-63
2023/01/04 00:47:13;;;;;;;7.03;4.77;;;-0.50;99.90;;;;;;4141748;28;20204;-63
2023/01/04 00:49:14;;;;;;;7.20;4.40;;;-0.50;99.90;;;;;;4131412;28;20186;-61
2023/01/04 00:51:15;;;;;;;8.70;5.03;;;-0.60;99.90;;;;;;4134960;28;20229;-64
2023/01/04 00:53:16;;;;;;;6.90;4.63;;;-0.50;99.90;;;;;;4143681;28;20567;-64
2023/01/04 00:55:17;;;;;;;11.23;5.67;;;-0.70;99.90;;;;;;4129730;28;20557;-64
2023/01/04 00:57:18;;;;;;;8.13;4.93;;;-0.80;99.90;;;;;;4128982;28;20492;-63
2023/01/04 00:59:20;;;;;;;10.80;5.67;;;-0.80;99.90;;;;;;4129172;28;20287;-64
2023/01/04 01:01:22;;;;;;;8.20;5.03;;;-0.90;99.90;;;;;;4142438;28;20220;-64
2023/01/04 01:03:23;;;;;;;8.63;4.20;;;-0.90;99.90;;;;;;4129400;28;21012;-65
2023/01/04 01:05:23;;;;;;;8.80;5.57;;;-0.90;99.90;;;;;;4129366;28;20456;-64
2023/01/04 01:07:24;;;;;;;7.43;4.87;;;-1.00;99.90;;;;;;4135049;28;20190;-65
2023/01/04 01:09:25;;;;;;;12.07;5.97;;;-1.00;99.90;;;;;;4129287;28;20171;-65
2023/01/04 01:11:26;;;;;;;8.40;5.00;;;-0.90;99.90;;;;;;4136070;28;20184;-63
2023/01/04 01:13:26;;;;;;;12.30;5.10;;;-0.80;99.90;;;;;;4112910;28;20322;-63
2023/01/04 01:15:27;;;;;;;9.67;4.83;;;-0.90;99.90;;;;;;4129460;28;20928;-64
2023/01/04 01:17:28;;;;;;;7.27;4.70;;;-0.90;99.90;;;;;;4130411;28;20794;-65
2023/01/04 01:19:29;;;;;;;7.60;4.60;;;-1.00;99.90;;;;;;4130950;28;20797;-65
2023/01/04 01:21:31;;;;;;;7.70;4.23;;;-1.00;99.90;;;;;;4130609;28;20182;-65
2023/01/04 01:23:32;;;;;;;12.60;4.80;;;-1.00;99.90;;;;;;4131138;28;21057;-65
2023/01/04 01:25:33;;;;;;;10.17;4.27;;;-1.00;99.90;;;;;;4129866;28;20464;-64
2023/01/04 01:27:34;;;;;;;6.33;3.93;;;-1.00;99.90;;;;;;4129929;28;20185;-65
2023/01/04 01:29:34;;;;;;;7.57;3.83;;;-1.10;99.90;;;;;;4113273;28;20461;-65
2023/01/04 01:31:35;;;;;;;7.67;4.80;;;-1.00;99.90;;;;;;4130618;28;20186;-65
2023/01/04 01:33:42;;;;;;;8.67;3.90;;;-1.10;99.90;;;;;;4130650;28;20626;-65
2023/01/04 01:35:42;;;;;;;5.47;3.57;;;-1.10;99.90;;;;;;4130649;28;20244;-64
2023/01/04 01:37:43;;;;;;;6.27;3.63;;;-1.10;99.90;;;;;;4129861;28;20476;-64
2023/01/04 01:39:43;;;;;;;4.20;2.80;;;-1.00;99.90;;;;;;4130513;28;20230;-65
2023/01/04 01:41:44;;;;;;;3.43;2.33;;;-1.10;99.90;;;;;;4113300;28;20194;-64
2023/01/04 01:43:45;;;;;;;4.73;3.00;;;-1.00;99.90;;;;;;4113253;28;20194;-64
2023/01/04 01:45:50;;;;;;;4.73;2.63;;;-1.00;99.90;;;;;;4130709;28;20178;-65
2023/01/04 01:47:50;;;;;;;5.63;3.07;;;-0.90;99.90;;;;;;4112653;28;20181;-65
2023/01/04 01:49:53;;;;;;;5.40;3.60;;;-0.80;99.90;;;;;;4113435;28;20876;-65
2023/01/04 01:51:56;;;;;;;4.63;3.03;;;-0.70;99.90;;;;;;4113217;28;20362;-64
2023/01/04 01:54:12;;;;;;;5.27;3.10;;;-0.60;99.90;;;;;;4113198;28;20437;-65
2023/01/04 01:56:16;;;;;;;4.20;2.80;;;-0.60;99.90;;;;;;4130560;28;20401;-65
2023/01/04 01:58:36;;;;;;;4.43;3.07;;;-0.60;99.90;;;;;;4128086;28;20547;-64
2023/01/04 02:00:37;;;;;;;4.37;2.53;;;-0.60;99.90;;;;;;4096994;28;20451;-65
2023/01/04 02:03:11;;;;;;;5.57;2.93;;;-0.60;99.90;;;;;;4114331;28;20430;-64
2023/01/04 02:05:12;;;;;;;4.20;2.37;;;-0.60;99.90;;;;;;4101581;29;20377;-65
2023/01/04 02:07:18;;;;;;;4.33;2.70;;;-0.50;99.90;;;;;;4118543;28;20476;-65
2023/01/04 02:09:21;;;;;;;5.60;3.10;;;-0.50;99.90;;;;;;4103910;29;20417;-64
2023/01/04 02:11:22;;;;;;;6.63;2.77;;;-0.50;99.90;;;;;;4103394;29;20526;-66
2023/01/04 02:14:25;;;;;;;3.30;2.60;;;-0.50;99.90;;;;;;4120215;28;20426;-65
2023/01/04 02:16:15;;;;;;;4.73;2.73;;;-0.50;99.90;;;;;;4106225;28;20209;-64
2023/01/04 02:18:33;;;;;;;6.73;3.30;;;-0.50;99.90;;;;;;4102243;29;20474;-65
2023/01/04 02:20:47;;;;;;;5.77;3.57;;;-0.80;99.90;;;;;;4102778;29;20452;-64
2023/01/04 02:23:17;;;;;;;5.37;3.03;;;-0.80;99.90;;;;;;4102536;29;20449;-64
2023/01/04 02:25:48;;;;;;;6.17;3.77;;;-0.90;99.90;;;;;;4119012;28;20424;-65
2023/01/04 02:28:01;;;;;;;6.40;4.50;;;-0.80;99.90;;;;;;4119545;28;20440;-64
2023/01/04 02:30:39;;;;;;;5.27;3.10;;;-0.80;99.90;;;;;;4114082;28;20442;-65
2023/01/04 02:32:51;;;;;;;5.73;3.23;;;-0.90;99.90;;;;;;4136097;28;20429;-64
2023/01/04 02:35:20;;;;;;;5.73;3.60;;;-0.90;99.90;;;;;;4118199;28;20444;-64
2023/01/04 02:38:08;;;;;;;3.80;3.10;;;-1.00;99.90;;;;;;4117086;28;20489;-64
2023/01/04 02:40:33;;;;;;;3.93;3.13;;;-1.10;99.90;;;;;;4135568;28;21163;-64
2023/01/04 02:45:10;;;;;;;7.77;3.83;;;-1.10;99.90;;;;;;4121555;28;20467;-65
2023/01/04 02:47:17;;;;;;;7.00;3.30;;;-1.00;99.90;;;;;;4120780;28;20444;-63
2023/01/04 02:51:37;;;;;;;5.43;3.50;;;-1.00;99.90;;;;;;4133569;28;20412;-63
2023/01/04 02:53:40;;;;;;;3.77;2.93;;;-1.00;99.90;;;;;;4116896;28;20431;-65
2023/01/04 02:56:10;;;;;;;4.53;3.20;;;-0.90;99.90;;;;;;4135153;28;21022;-64
2023/01/04 02:58:49;;;;;;;4.50;2.73;;;-1.10;99.90;;;;;;4133921;28;20486;-64
2023/01/04 03:07:58;;;;;;;5.20;3.17;;;-1.20;99.90;;;;;;4135212;28;20467;-64
2023/01/04 03:10:29;;;;;;;5.17;3.10;;;-1.20;99.90;;;;;;4136510;28;20936;-63
2023/01/04 03:12:37;;;;;;;3.73;2.90;;;-1.20;99.90;;;;;;4117786;28;20434;-64
2023/01/04 03:14:53;;;;;;;4.00;2.63;;;-1.30;99.90;;;;;;4118238;28;21076;-63
2023/01/04 03:16:54;;;;;;;4.30;2.80;;;-1.20;99.90;;;;;;4116805;28;20825;-63
2023/01/04 03:19:03;;;;;;;4.43;2.50;;;-1.20;99.90;;;;;;4116128;28;20485;-63
2023/01/04 03:21:06;;;;;;;6.73;2.63;;;-1.10;99.90;;;;;;4134370;28;20456;-64
2023/01/04 03:36:04;;;;;;;2.00;1.80;;;-1.00;99.90;;;;;;4128832;28;20475;-64
2023/01/04 03:48:29;;;;;;;3.90;2.33;;;-0.80;99.90;;;;;;4130712;28;20578;-64
2023/01/04 03:50:46;;;;;;;2.23;1.93;;;-0.70;99.90;;;;;;4131726;28;20464;-64
2023/01/04 03:52:48;;;;;;;6.27;2.73;;;-0.70;99.90;;;;;;4130975;28;20425;-64
2023/01/04 03:54:49;;;;;;;4.77;2.23;;;-0.70;99.90;;;;;;4113999;28;20944;-63
2023/01/04 03:56:51;;;;;;;4.13;1.70;;;-0.50;99.90;;;;;;4117291;28;20470;-64
2023/01/04 03:58:58;;;;;;;2.63;1.73;;;-0.40;99.90;;;;;;4115953;28;20214;-64
2023/01/04 04:01:03;;;;;;;4.23;1.87;;;-0.40;99.90;;;;;;4110777;28;20559;-63
2023/01/04 04:03:07;;;;;;;1.87;1.57;;;-0.40;99.90;;;;;;4114655;28;20920;-64
2023/01/04 04:09:58;;;;;;;1.80;1.60;;;-0.20;99.90;;;;;;4131641;28;20928;-64
2023/01/04 04:11:59;;;;;;;2.70;1.80;;;-0.20;99.90;;;;;;4131967;28;20511;-64
2023/01/04 04:13:59;;;;;;;2.90;1.97;;;-0.20;99.90;;;;;;4131696;28;20178;-64
2023/01/04 04:16:00;;;;;;;3.87;2.03;;;-0.20;99.90;;;;;;4114523;28;20187;-63
2023/01/04 04:18:01;;;;;;;2.30;1.83;;;-0.30;99.90;;;;;;4129510;28;20218;-64
2023/01/04 04:20:01;;;;;;;3.13;2.20;;;-0.20;99.90;;;;;;4131699;28;20301;-63
2023/01/04 04:22:02;;;;;;;4.70;1.80;;;-0.30;99.90;;;;;;4131786;28;20194;-64
2023/01/04 04:24:04;;;;;;;2.53;1.70;;;-0.30;99.90;;;;;;4131391;28;20230;-64
2023/01/04 04:26:04;;;;;;;2.63;1.70;;;-0.30;99.90;;;;;;4131276;28;20190;-64
2023/01/04 04:28:05;;;;;;;3.27;1.60;;;-0.30;99.90;;;;;;4131013;28;20421;-64
2023/01/04 04:30:06;;;;;;;2.93;1.80;;;-0.30;99.90;;;;;;4131445;28;20198;-63
2023/01/04 04:32:07;;;;;;;4.90;1.70;;;-0.50;99.90;;;;;;4114136;28;20260;-64
2023/01/04 04:34:09;;;;;;;8.83;3.10;;;-0.50;99.90;;;;;;4131332;28;20433;-64
2023/01/04 04:36:10;;;;;;;7.43;2.90;;;-0.40;99.90;;;;;;4131529;28;20186;-63
2023/01/04 04:38:11;;;;;;;4.07;2.60;;;-0.50;99.90;;;;;;4130634;28;20980;-64
2023/01/04 04:41:37;;;;;;;5.30;2.20;;;-0.50;99.90;;;;;;4131217;28;20195;-64
2023/01/04 04:42:32;;;;;;;4.43;2.10;;;-0.40;99.90;;;;;;4116695;28;20187;-64
2023/01/04 04:44:34;;;;;;;3.23;1.50;;;-0.30;99.90;;;;;;4135006;28;20417;-63
2023/01/04 04:46:35;;;;;;;4.23;2.00;;;-0.10;99.90;;;;;;4118902;28;20792;-64
2023/01/04 04:48:36;;;;;;;3.80;2.07;;;0.00;99.90;;;;;;4114377;28;20439;-64
2023/01/04 04:50:36;;;;;;;3.23;1.60;;;-0.10;99.90;;;;;;4098169;29;20490;-64
2023/01/04 04:52:40;;;;;;;3.33;2.40;;;0.00;99.90;;;;;;4131333;28;20175;-64
2023/01/04 04:54:40;;;;;;;5.27;2.80;;;0.00;99.90;;;;;;4131364;28;20241;-63
2023/01/04 04:56:41;;;;;;;3.83;1.70;;;0.00;99.90;;;;;;4130672;28;20519;-64
2023/01/04 04:58:41;;;;;;;4.30;2.23;;;0.00;99.90;;;;;;4131213;28;20689;-64
2023/01/04 05:00:42;;;;;;;2.07;1.70;;;0.00;99.90;;;;;;4130799;28;20760;-64
2023/01/04 05:02:43;;;;;;;6.17;2.40;;;0.10;99.90;;;;;;4131012;28;20720;-64
2023/01/04 05:04:43;;;;;;;2.23;1.57;;;0.10;99.90;;;;;;4131166;28;20902;-64
2023/01/04 05:06:47;;;;;;;4.80;1.63;;;0.30;99.90;;;;;;4130496;28;20197;-64
2023/01/04 05:08:48;;;;;;;2.90;1.60;;;0.60;99.90;;;;;;4113651;28;20357;-64
2023/01/04 05:10:48;;;;;;;5.43;1.90;;;0.80;99.90;;;;;;4114076;28;20469;-64
2023/01/04 05:12:58;;;;;;;3.87;2.50;;;0.90;99.90;;;;;;4131095;28;20187;-63
2023/01/04 05:14:59;;;;;;;5.23;3.00;;;0.80;99.90;;;;;;4131148;28;20174;-64
2023/01/04 05:16:59;;;;;;;2.70;1.70;;;0.90;99.90;;;;;;4130367;28;20461;-64
2023/01/04 05:19:00;;;;;;;3.37;2.20;;;1.10;99.90;;;;;;4130850;28;20249;-64
2023/01/04 05:21:01;;;;;;;1.57;1.00;;;1.20;99.90;;;;;;4131182;28;20206;-64
2023/01/04 05:23:03;;;;;;;1.70;1.30;;;1.40;99.90;;;;;;4130658;28;20657;-64
2023/01/04 05:25:04;;;;;;;1.30;1.00;;;1.40;99.90;;;;;;4113469;28;20440;-64
2023/01/04 05:27:04;;;;;;;1.70;1.00;;;1.50;99.90;;;;;;4130481;28;20438;-65
2023/01/04 05:29:05;;;;;;;1.50;1.30;;;1.50;99.90;;;;;;4130774;28;20429;-65
2023/01/04 05:31:06;;;;;;;1.17;0.90;;;1.50;99.90;;;;;;4113261;28;20298;-64
2023/01/04 05:33:07;;;;;;;1.43;1.07;;;1.60;99.90;;;;;;4131070;28;20728;-65
2023/01/04 05:35:08;;;;;;;1.70;1.10;;;1.80;99.90;;;;;;4130516;28;20195;-63
2023/01/04 05:37:09;;;;;;;2.90;1.70;;;1.90;99.90;;;;;;4130110;28;20428;-65
2023/01/04 05:39:10;;;;;;;1.60;1.40;;;1.90;99.90;;;;;;4130350;28;20457;-63
2023/01/04 05:43:30;;;;;;;2.73;1.30;;;1.90;99.90;;;;;;4130577;28;20192;-63
2023/01/04 05:45:30;;;;;;;1.27;1.00;;;1.50;99.90;;;;;;4130631;28;20921;-63
2023/01/04 05:47:31;;;;;;;2.07;1.30;;;1.60;99.90;;;;;;4129914;28;20170;-64
2023/01/04 05:49:32;;;;;;;1.80;1.10;;;1.80;99.90;;;;;;4130403;28;20199;-63
2023/01/04 05:51:33;;;;;;;1.03;0.60;;;1.90;99.90;;;;;;4130436;28;20913;-64
2023/01/04 05:53:33;;;;;;;0.50;0.50;;;2.10;99.90;;;;;;4130432;28;20600;-64
2023/01/04 05:55:34;;;;;;;1.23;0.53;;;2.30;99.90;;;;;;4130964;28;20189;-63
2023/01/04 05:57:35;;;;;;;1.50;0.60;;;2.50;99.90;;;;;;4129828;28;20192;-64
2023/01/04 05:59:36;;;;;;;0.53;0.53;;;2.40;99.90;;;;;;4131145;28;20358;-64
2023/01/04 06:01:36;;;;;;;0.50;0.50;;;2.50;99.90;;;;;;4118407;28;20280;-63
2023/01/04 06:03:37;;;;;;;1.30;1.10;;;2.60;99.90;;;;;;4114541;28;20494;-64
2023/01/04 06:05:38;;;;;;;1.37;0.90;;;2.60;99.90;;;;;;4114648;28;20877;-64
2023/01/04 06:07:39;;;;;;;1.40;1.20;;;2.60;99.90;;;;;;4113468;28;20716;-64
2023/01/04 06:09:40;;;;;;;0.80;0.80;;;2.80;99.90;;;;;;4119920;28;20766;-64
2023/01/04 06:11:41;;;;;;;3.40;1.50;;;2.80;99.90;;;;;;4127599;28;20436;-63
2023/01/04 06:13:41;;;;;;;2.30;1.20;;;2.80;99.90;;;;;;4129780;28;20537;-64
2023/01/04 06:15:43;;;;;;;2.70;1.60;;;2.80;99.90;;;;;;4112297;28;21014;-64
2023/01/04 06:17:44;;;;;;;3.33;1.20;;;2.80;99.90;;;;;;4111691;28;20264;-64
2023/01/04 06:19:45;;;;;;;3.57;1.60;;;2.70;99.90;;;;;;4112124;28;20448;-64
2023/01/04 06:21:46;;;;;;;3.43;2.00;;;2.60;99.90;;;;;;4129593;28;20180;-65
2023/01/04 06:23:46;;;;;;;4.57;1.90;;;2.50;99.90;;;;;;4129562;28;20638;-64
2023/01/04 06:25:47;;;;;;;2.27;1.47;;;2.50;99.90;;;;;;4129804;28;20641;-63
2023/01/04 06:27:48;;;;;;;2.97;2.00;;;2.60;99.90;;;;;;4128922;28;20554;-64
2023/01/04 06:29:48;;;;;;;1.53;1.10;;;2.50;99.90;;;;;;4129372;28;20869;-64
2023/01/04 06:31:49;;;;;;;1.40;1.30;;;2.40;99.90;;;;;;4129105;28;20659;-64
2023/01/04 06:33:50;;;;;;;1.37;0.80;;;2.50;99.90;;;;;;4129555;28;20554;-64
2023/01/04 06:35:54;;;;;;;1.23;1.13;;;2.70;99.90;;;;;;4129632;28;20234;-64
2023/01/04 06:37:55;;;;;;;1.60;1.43;;;2.70;99.90;;;;;;4128743;28;20211;-64
2023/01/04 06:39:56;;;;;;;4.07;1.60;;;2.70;99.90;;;;;;4129591;28;20862;-64
2023/01/04 06:41:56;;;;;;;2.83;0.97;;;2.70;99.90;;;;;;4129380;28;20627;-63
2023/01/04 06:43:57;;;;;;;1.80;1.17;;;2.60;99.90;;;;;;4131278;28;20178;-64
2023/01/04 06:46:00;;;;;;;1.20;1.00;;;2.70;99.90;;;;;;4137805;28;20192;-64
2023/01/04 06:48:00;;;;;;;2.73;1.00;;;2.60;99.90;;;;;;4131228;28;20192;-64
2023/01/04 06:50:01;;;;;;;1.77;1.30;;;2.70;99.90;;;;;;4130074;28;20832;-63
2023/01/04 06:52:02;;;;;;;2.00;1.20;;;2.80;99.90;;;;;;4112050;28;20212;-63
2023/01/04 06:54:02;;;;;;;1.57;1.07;;;2.80;99.90;;;;;;4129204;28;20196;-63
2023/01/04 06:56:04;;;;;;;1.77;1.07;;;2.70;99.90;;;;;;4129361;28;20183;-63
2023/01/04 06:58:04;;;;;;;3.17;1.23;;;2.70;99.90;;;;;;4110988;28;20225;-65
2023/01/04 07:00:07;;;;;;;2.00;1.30;;;2.80;99.90;;;;;;4129174;28;20657;-65
2023/01/04 07:02:13;;;;;;;1.13;1.00;;;2.90;99.90;;;;;;4128993;28;20194;-64
2023/01/04 07:04:14;;;;;;;1.43;1.10;;;2.90;99.90;;;;;;4111558;28;20422;-64
2023/01/04 07:06:15;;;;;;;2.03;1.33;;;3.00;99.90;;;;;;4129043;28;20489;-64
2023/01/04 07:08:15;;;;;;;0.70;0.70;;;3.10;99.90;;;;;;4128573;28;20192;-63
2023/01/04 07:10:16;;;;;;;0.63;0.60;;;3.10;99.90;;;;;;4129062;28;20208;-63
2023/01/04 07:12:17;;;;;;;1.47;0.80;;;3.00;99.90;;;;;;4129413;28;20264;-64
2023/01/04 07:14:18;;;;;;;1.57;0.90;;;3.00;99.90;;;;;;4114680;28;20594;-64
2023/01/04 07:16:19;;;;;;;0.80;0.70;;;3.10;99.90;;;;;;4132149;28;20412;-63
2023/01/04 07:18:20;;;;;;;1.00;0.80;;;3.10;99.90;;;;;;4131971;28;20225;-64
2023/01/04 07:20:21;;;;;;;3.63;0.87;;;3.20;99.90;;;;;;4114708;28;20453;-64
2023/01/04 07:22:22;;;;;;;0.83;0.50;;;3.30;99.90;;;;;;4132246;28;20439;-64
2023/01/04 07:24:23;;;;;;;2.23;0.70;;;3.50;99.90;;;;;;4132011;28;20240;-63
2023/01/04 07:26:24;;;;;;;1.87;1.23;;;3.90;99.90;;;;;;4131515;28;20186;-63
2023/01/04 07:30:44;;;;;;;1.07;0.70;;;4.00;99.60;;;;;;4132109;28;20216;-64
2023/01/04 07:32:44;;;;;;;2.00;1.00;;;4.10;99.10;;;;;;4114550;28;20440;-64
2023/01/04 07:34:45;;;;;;;1.63;1.03;;;4.00;99.80;;;;;;4131792;28;20195;-63
2023/01/04 07:36:46;;;;;;;2.47;1.00;;;4.00;99.70;;;;;;4113679;28;20194;-64
2023/01/04 07:38:47;;;;;;;1.20;0.80;;;4.00;99.90;;;;;;4114451;28;20211;-63
2023/01/04 07:40:53;;;;;;;0.70;0.70;;;4.10;98.40;;;;;;4132121;28;20451;-64
2023/01/04 07:42:56;;;;;;;0.60;0.50;;;4.30;99.20;;;;;;4131573;28;20184;-64
2023/01/04 07:44:57;;;;;;;1.20;0.70;;;4.40;98.00;;;;;;4114476;28;20854;-63
2023/01/04 07:46:58;;;;;;;0.80;0.80;;;4.40;98.50;;;;;;4130990;28;20421;-64
2023/01/04 07:48:59;;;;;;;1.80;0.73;;;4.30;99.90;;;;;;4131719;28;20198;-64
2023/01/04 07:50:59;;;;;;;0.80;0.80;;;4.30;99.10;;;;;;4114207;28;20240;-64
2023/01/04 07:53:00;;;;;;;0.53;0.50;;;4.40;97.50;;;;;;4131434;28;20216;-65
2023/01/04 07:55:01;;;;;;;1.30;0.73;;;4.50;97.50;;;;;;4114237;28;20222;-65
2023/01/04 07:57:02;;;;;;;2.73;0.83;;;4.50;98.30;;;;;;4130801;28;20453;-64
2023/01/04 07:59:07;;;;;;;2.27;0.80;;;4.40;97.40;;;;;;4114040;28;20270;-64
2023/01/04 08:01:17;;;;;;;0.93;0.70;;;4.50;98.40;;;;;;4107086;28;20223;-65
2023/01/04 08:03:18;;;;;;;0.67;0.63;;;4.60;96.30;;;;;;4115328;28;21100;-65
2023/01/04 08:05:19;;;;;;;0.47;0.47;;;4.70;96.30;;;;;;4115429;28;20422;-65
2023/01/04 08:07:19;;;;;;;0.97;0.53;;;4.70;96.50;;;;;;4114561;28;20194;-64
2023/01/04 08:09:20;;;;;;;1.37;0.50;;;4.60;97.20;;;;;;4115123;28;20185;-65
2023/01/04 08:11:22;;;;;;;0.40;0.40;;;4.50;97.00;;;;;;4115628;28;20187;-64
2023/01/04 08:13:22;;;;;;;0.70;0.40;;;4.50;97.40;;;;;;4115345;28;20733;-65
2023/01/04 08:15:23;;;;;;;0.40;0.40;;;4.50;96.60;;;;;;4115239;28;20434;-64
2023/01/04 08:17:24;;;;;;;1.13;0.50;;;4.50;96.70;;;;;;4097244;29;20194;-65
2023/01/04 08:19:25;;;;;;;0.70;0.60;;;4.50;96.60;;;;;;4115064;28;20213;-65
2023/01/04 08:21:29;;;;;;;0.50;0.50;;;4.60;96.50;;;;;;4098108;29;20187;-64
2023/01/04 08:23:30;;;;;;;0.67;0.60;;;4.50;97.00;;;;;;4114589;28;20831;-65
2023/01/04 08:25:31;;;;;;;1.20;0.73;;;4.50;96.60;;;;;;4097753;29;20427;-64
2023/01/04 08:27:32;;;;;;;1.63;0.50;;;4.60;97.20;;;;;;4114327;28;20429;-64
2023/01/04 08:29:33;;;;;;;1.87;0.50;;;4.50;96.70;;;;;;4114775;28;20423;-65
2023/01/04 08:31:34;;;;;;;1.73;0.57;;;4.70;97.20;;;;;;4124491;28;20179;-65
2023/01/04 08:33:37;;;;;;;1.73;0.60;;;4.70;97.80;;;;;;4131151;28;20197;-64
2023/01/04 08:35:37;;;;;;;1.07;0.50;;;4.70;97.30;;;;;;4113410;28;20183;-65
2023/01/04 08:37:38;;;;;;;3.67;0.50;;;4.70;97.60;;;;;;4130036;28;20432;-65
2023/01/04 08:39:39;;;;;;;1.50;0.87;;;4.80;97.30;;;;;;4113278;28;20199;-64
2023/01/04 08:41:52;;;;;;;3.63;1.30;;;4.70;98.30;;;;;;4113290;28;20189;-65
2023/01/04 08:43:53;;;;;;;2.33;1.20;;;4.60;98.90;;;;;;4131543;28;20162;-64
2023/01/04 08:45:54;;;;;;;1.43;1.10;;;4.60;99.40;;;;;;4138984;28;20436;-64
2023/01/04 08:47:54;;;;;;;3.97;1.40;;;4.70;99.60;;;;;;4133607;28;20193;-64
2023/01/04 08:49:55;;;;;;;1.67;1.03;;;4.70;99.70;;;;;;4130994;28;20206;-63
2023/01/04 08:51:56;;;;;;;4.43;1.10;;;4.70;99.90;;;;;;4130922;28;20187;-65
2023/01/04 08:53:58;;;;;;;1.30;0.90;;;4.90;99.90;;;;;;4130871;28;20461;-65
2023/01/04 08:55:59;;;;;;;0.87;0.80;;;4.90;99.90;;;;;;4130835;28;20213;-64
2023/01/04 08:58:00;;;;;;;1.20;0.70;;;4.90;99.70;;;;;;4112908;28;20540;-65
2023/01/04 09:00:02;;;;;;;0.83;0.70;;;4.90;99.40;;;;;;4130497;28;20521;-63
2023/01/04 09:02:02;;;;;;;3.87;1.20;;;5.10;98.50;;;;;;4113300;28;20190;-63
2023/01/04 09:04:03;;;;;;;0.67;0.60;;;5.10;98.60;;;;;;4130614;28;20417;-63
2023/01/04 09:06:11;;;;;;;1.10;0.57;;;5.10;99.10;;;;;;4130739;28;20171;-62
2023/01/04 09:08:11;;;;;;;0.40;0.40;;;5.10;99.00;;;;;;4129809;28;20252;-63
2023/01/04 09:10:12;;;;;;;2.03;0.67;;;5.20;98.60;;;;;;4130353;28;20458;-63
2023/01/04 09:12:13;;;;;;;1.30;0.60;;;5.10;99.10;;;;;;4130405;28;20186;-64
2023/01/04 09:14:13;;;;;;;1.67;0.73;;;5.10;99.30;;;;;;4130334;28;20190;-64
2023/01/04 09:16:18;;;;;;;1.47;1.37;;;5.20;99.50;;;;;;4130334;28;20580;-63
2023/01/04 09:18:19;;;;;;;2.10;1.00;;;5.20;99.30;;;;;;4130045;28;20206;-63
2023/01/04 09:20:20;;;;;;;1.20;0.90;;;5.30;98.70;;;;;;4113332;28;20816;-65
2023/01/04 09:22:20;;;;;;;2.50;1.07;;;5.40;98.90;;;;;;4130377;28;20571;-64
2023/01/04 09:24:21;;;;;;;1.50;1.20;;;5.30;99.00;;;;;;4130628;28;20890;-64
2023/01/04 09:26:22;;;;;;;2.40;0.77;;;5.40;98.70;;;;;;4129883;28;20566;-64
2023/01/04 09:28:23;;;;;;;0.60;0.60;;;5.60;97.80;;;;;;4112854;28;20195;-64
2023/01/04 09:30:24;;;;;;;1.27;0.50;;;5.50;98.20;;;;;;4130185;28;20811;-64
2023/01/04 09:32:26;;;;;;;1.63;0.80;;;5.50;97.60;;;;;;4130258;28;20297;-63
2023/01/04 09:34:26;;;;;;;0.50;0.50;;;5.50;98.60;;;;;;4129753;28;21016;-64
2023/01/04 09:36:27;;;;;;;0.70;0.70;;;5.50;98.00;;;;;;4128790;28;20502;-63
2023/01/04 09:38:28;;;;;;;1.60;0.67;;;5.60;98.00;;;;;;4112262;28;20293;-64
2023/01/04 09:40:55;;;;;;;0.80;0.60;;;5.60;98.10;;;;;;4129814;28;20234;-64
2023/01/04 09:42:57;;;;;;;1.50;0.60;;;5.70;97.80;;;;;;4112447;28;20171;-64
2023/01/04 09:45:11;;;;;;;0.90;0.60;;;5.70;97.30;;;;;;4112508;28;20226;-64
2023/01/04 09:47:31;;;;;;;0.83;0.50;;;5.70;97.80;;;;;;4111879;28;20518;-64
2023/01/04 09:49:51;;;;;;;1.00;0.63;;;5.80;97.50;;;;;;4129652;28;20414;-63
2023/01/04 09:52:16;;;;;;;0.73;0.57;;;5.90;97.60;;;;;;4112375;28;20917;-64
2023/01/04 09:54:20;;;;;;;1.40;1.30;;;5.90;97.50;;;;;;4129851;28;20618;-64
2023/01/04 09:56:29;;;;;;;1.13;0.50;;;5.90;98.00;;;;;;4111850;28;20269;-63
2023/01/04 09:58:38;;;;;;;1.30;1.00;;;5.90;98.30;;;;;;4112308;28;20457;-64
2023/01/04 10:01:17;;;;;;;0.87;0.60;;;5.90;98.20;;;;;;4129450;28;20295;-71
2023/01/04 10:03:34;;;;;;;1.83;0.70;;;6.00;98.60;;;;;;4112332;28;20465;-62
2023/01/04 10:05:34;;;;;;;0.50;0.50;;;6.10;98.30;;;;;;4096291;28;20177;-63
2023/01/04 10:07:35;;;;;;;0.80;0.77;;;6.20;98.40;;;;;;4126725;28;20387;-63
2023/01/04 10:09:36;;;;;;;2.10;0.77;;;6.20;98.90;;;;;;4113577;28;20188;-63
2023/01/04 10:11:45;;;;;;;2.07;0.90;;;6.20;99.30;;;;;;4113795;28;20303;-62
2023/01/04 10:14:20;;;;;;;2.90;1.83;;;6.20;99.60;;;;;;4113741;28;20666;-63
2023/01/04 10:16:38;;;;;;;1.20;0.90;;;6.30;99.90;;;;;;4112849;28;20418;-61
2023/01/04 10:19:12;;;;;;;0.93;0.60;;;6.40;99.70;;;;;;4113222;28;20199;-63
2023/01/04 10:21:32;;;;;;;2.93;1.20;;;6.50;99.60;;;;;;4090265;28;20554;-62
2023/01/04 10:23:57;;;;;;;0.87;0.60;;;6.50;99.80;;;;;;4129439;28;20640;-63
2023/01/04 10:26:22;;;;;;;1.90;0.60;;;6.60;99.40;;;;;;4129292;28;20245;-63
2023/01/04 10:28:44;;;;;;;1.13;1.07;;;6.60;99.40;;;;;;4129065;28;20174;-63
2023/01/04 10:31:10;;;;;;;2.13;1.50;;;6.60;99.30;;;;;;4111755;28;20285;-63
2023/01/04 10:33:20;;;;;;;1.53;1.10;;;6.50;99.30;;;;;;4112088;28;20328;-63
2023/01/04 10:35:26;;;;;;;1.90;1.33;;;6.60;99.80;;;;;;4111863;28;20186;-64
2023/01/04 10:37:34;;;;;;;1.27;0.90;;;6.60;99.30;;;;;;4128482;28;20280;-63
2023/01/04 10:39:35;;;;;;;1.40;0.70;;;6.60;99.50;;;;;;4111698;28;20183;-63
2023/01/04 10:41:44;;;;;;;2.40;0.90;;;6.50;99.90;;;;;;4129239;28;20269;-64
2023/01/04 10:44:06;;;;;;;0.73;0.60;;;6.50;99.90;;;;;;4111673;28;20174;-63
2023/01/04 10:46:15;;;;;;;1.70;1.60;;;6.50;99.90;;;;;;4118974;28;20250;-63
2023/01/04 10:48:51;;;;;;;0.83;0.60;;;6.50;99.90;;;;;;4115158;28;20246;-64
2023/01/04 10:51:00;;;;;;;7.27;4.30;;;6.50;99.90;;;;;;4112074;28;20204;-68
2023/01/04 10:53:17;;;;;;;2.93;1.90;;;6.60;99.90;;;;;;4111902;28;20185;-63
2023/01/04 10:56:02;;;;;;;1.50;1.10;;;6.70;99.90;;;;;;4129260;28;20273;-64
2023/01/04 10:58:33;;;;;;;1.60;1.50;;;6.80;99.90;;;;;;4111125;28;20269;-64
2023/01/04 11:00:41;;;;;;;2.77;0.90;;;6.90;99.90;;;;;;4105564;28;20245;-64
2023/01/04 11:03:07;;;;;;;0.90;0.90;;;6.90;99.90;;;;;;4111613;28;20254;-64
2023/01/04 11:05:40;;;;;;;0.70;0.70;;;7.00;99.60;;;;;;4111627;28;20184;-64
2023/01/04 11:07:52;;;;;;;0.87;0.77;;;7.10;99.50;;;;;;4095059;29;21045;-64
2023/01/04 11:10:02;;;;;;;2.53;2.33;;;7.20;98.90;;;;;;4111762;28;20277;-64
2023/01/04 11:12:05;;;;;;;2.27;0.83;;;7.20;99.10;;;;;;4111716;28;20178;-64
2023/01/04 11:14:06;;;;;;;1.53;1.43;;;7.10;99.30;;;;;;4095557;29;20222;-65
2023/01/04 11:16:07;;;;;;;1.00;1.00;;;7.20;99.40;;;;;;4128695;28;20181;-64
2023/01/04 11:18:12;;;;;;;0.60;0.60;;;7.30;99.20;;;;;;4110721;28;20230;-64
2023/01/04 11:20:13;;;;;;;1.00;0.63;;;7.30;99.50;;;;;;4095569;28;20907;-64
2023/01/04 11:22:38;;;;;;;1.27;0.60;;;7.30;99.40;;;;;;4111339;28;20198;-64
2023/01/04 11:24:41;;;;;;;0.70;0.70;;;7.40;99.50;;;;;;4111386;28;20210;-64
2023/01/04 11:26:44;;;;;;;0.60;0.60;;;7.50;99.10;;;;;;4128142;28;20285;-64
2023/01/04 11:29:04;;;;;;;1.13;0.73;;;7.50;99.30;;;;;;4111247;28;20191;-65
2023/01/04 11:31:21;;;;;;;0.60;0.60;;;7.50;99.10;;;;;;4128978;28;20204;-64
2023/01/04 11:33:24;;;;;;;0.50;0.50;;;7.40;99.20;;;;;;4111285;28;20179;-64
2023/01/04 11:35:57;;;;;;;1.73;0.60;;;7.30;99.90;;;;;;4118207;28;20198;-62
2023/01/04 11:38:20;;;;;;;2.50;1.30;;;7.40;99.80;;;;;;4111213;28;20845;-62
2023/01/04 11:40:23;;;;;;;1.67;0.70;;;7.40;99.60;;;;;;4110693;28;20862;-63
2023/01/04 11:42:24;;;;;;;1.67;1.63;;;7.40;99.20;;;;;;4137874;28;20636;-63